Time;durP1;ratioP1;P1;durP2;ratioP2;P2;SDS_P1;SDS_P2;PMS_P1;PMS_P2;Temp;Humidity;BMP_temperature;BMP_pressure;BME280_temperature;BME280_humidity;BME280_pressure;Samples;Min_cycle;Max_cycle;Signal;HPM_P1;HPM_P2
2021/11/22 00:01:03;;;;;;;17.30;10.07;;;3.70;99.90;;;;;;5062532;28;20021;-79
2021/11/22 00:03:31;;;;;;;20.58;10.32;;;3.70;99.90;;;;;;5060048;28;20017;-79
2021/11/22 00:05:57;;;;;;;18.33;9.95;;;3.70;99.90;;;;;;5059088;28;20028;-79
2021/11/22 00:08:23;;;;;;;16.58;9.75;;;3.70;99.90;;;;;;5041353;28;20029;-79
2021/11/22 00:10:48;;;;;;;14.90;9.23;;;3.70;99.90;;;;;;5061759;28;20036;-80
2021/11/22 00:13:15;;;;;;;19.02;10.82;;;3.70;99.90;;;;;;5062635;28;20033;-79
2021/11/22 00:15:40;;;;;;;20.40;10.48;;;3.70;99.90;;;;;;5038476;28;20121;-80
2021/11/22 00:18:06;;;;;;;17.02;9.55;;;3.70;99.90;;;;;;5023223;28;20184;-78
2021/11/22 00:20:34;;;;;;;23.10;11.43;;;3.70;99.90;;;;;;5041799;28;20028;-77
2021/11/22 00:23:00;;;;;;;20.92;10.73;;;3.70;99.90;;;;;;5077032;28;20024;-78
2021/11/22 00:25:26;;;;;;;20.75;9.90;;;3.70;99.90;;;;;;5082772;28;20780;-77
2021/11/22 00:27:51;;;;;;;17.17;9.48;;;3.70;99.90;;;;;;5061774;28;20051;-79
2021/11/22 00:30:18;;;;;;;18.10;9.38;;;3.70;99.90;;;;;;5062394;28;20047;-78
2021/11/22 00:32:45;;;;;;;19.25;10.13;;;3.70;99.90;;;;;;5063177;28;20021;-79
2021/11/22 00:35:14;;;;;;;16.50;9.63;;;3.60;99.90;;;;;;5063421;28;20393;-79
2021/11/22 00:37:41;;;;;;;16.23;9.27;;;3.70;99.90;;;;;;5065496;28;20025;-80
2021/11/22 00:40:10;;;;;;;20.75;10.10;;;3.70;99.90;;;;;;5062648;28;20041;-78
2021/11/22 00:42:38;;;;;;;22.00;11.38;;;3.60;99.90;;;;;;5049177;28;20029;-78
2021/11/22 00:45:04;;;;;;;20.30;9.88;;;3.60;99.90;;;;;;5069147;28;20020;-77
2021/11/22 00:47:30;;;;;;;19.95;10.18;;;3.60;99.90;;;;;;5061999;28;20029;-78
2021/11/22 00:49:56;;;;;;;19.75;11.48;;;3.70;99.90;;;;;;5063985;28;20057;-79
2021/11/22 00:52:22;;;;;;;20.73;11.05;;;3.60;99.90;;;;;;5051045;28;20100;-78
2021/11/22 00:54:48;;;;;;;21.27;10.60;;;3.60;99.90;;;;;;5048697;28;20084;-78
2021/11/22 00:57:14;;;;;;;21.90;11.75;;;3.60;99.90;;;;;;5062694;28;20025;-79
2021/11/22 00:59:40;;;;;;;21.42;11.18;;;3.70;99.90;;;;;;5061361;28;20021;-78
2021/11/22 01:02:05;;;;;;;18.08;9.40;;;3.70;99.90;;;;;;5060397;28;20029;-79
2021/11/22 01:04:33;;;;;;;18.23;10.55;;;3.70;99.90;;;;;;5060473;28;20033;-79
2021/11/22 01:06:59;;;;;;;16.33;9.45;;;3.70;99.90;;;;;;5059797;28;20029;-79
2021/11/22 01:09:24;;;;;;;19.38;11.00;;;3.70;99.90;;;;;;5043874;28;20068;-78
2021/11/22 01:11:50;;;;;;;17.88;10.27;;;3.60;99.90;;;;;;5042981;28;20116;-79
2021/11/22 01:14:16;;;;;;;20.67;10.77;;;3.60;99.90;;;;;;5060352;28;20028;-78
2021/11/22 01:16:42;;;;;;;20.83;11.45;;;3.60;99.90;;;;;;5060455;28;20025;-79
2021/11/22 01:19:08;;;;;;;21.73;11.50;;;3.70;99.90;;;;;;5043790;28;20031;-78
2021/11/22 01:21:35;;;;;;;25.90;13.95;;;3.70;99.90;;;;;;5038706;28;20060;-78
2021/11/22 01:24:01;;;;;;;21.75;11.07;;;3.70;99.90;;;;;;5073615;28;20030;-78
2021/11/22 01:26:27;;;;;;;18.33;10.05;;;3.60;99.90;;;;;;5078761;28;20103;-77
2021/11/22 01:28:53;;;;;;;21.02;11.45;;;3.70;99.90;;;;;;5066660;28;20098;-78
2021/11/22 01:31:19;;;;;;;22.38;10.90;;;3.70;99.90;;;;;;5061191;28;20054;-78
2021/11/22 01:33:45;;;;;;;16.90;9.50;;;3.70;99.90;;;;;;5047001;28;20044;-78
2021/11/22 01:36:13;;;;;;;24.35;11.50;;;3.70;99.90;;;;;;5064346;28;20013;-78
2021/11/22 01:38:39;;;;;;;21.30;10.35;;;3.70;99.90;;;;;;5056624;28;20037;-78
2021/11/22 01:41:05;;;;;;;17.13;8.68;;;3.70;99.90;;;;;;5045357;28;20021;-78
2021/11/22 01:43:32;;;;;;;15.43;8.65;;;3.70;99.90;;;;;;5045429;28;20021;-79
2021/11/22 01:45:58;;;;;;;18.23;9.48;;;3.60;99.90;;;;;;5028159;28;20531;-79
2021/11/22 01:48:25;;;;;;;18.70;10.27;;;3.60;99.90;;;;;;5031087;28;20143;-79
2021/11/22 01:50:53;;;;;;;19.70;10.05;;;3.60;99.90;;;;;;5050745;28;20080;-79
2021/11/22 01:53:20;;;;;;;20.42;11.10;;;3.60;99.90;;;;;;5077813;28;20099;-79
2021/11/22 01:55:46;;;;;;;18.92;10.85;;;3.60;99.90;;;;;;5068371;28;20060;-79
2021/11/22 01:58:12;;;;;;;20.90;11.18;;;3.60;99.90;;;;;;5087359;28;20024;-79
2021/11/22 02:00:43;;;;;;;18.73;11.10;;;3.60;99.90;;;;;;5051026;28;20032;-79
2021/11/22 02:03:10;;;;;;;18.92;10.80;;;3.60;99.90;;;;;;5046646;28;20190;-79
2021/11/22 02:05:37;;;;;;;17.25;10.32;;;3.60;99.90;;;;;;5046640;28;20021;-82
2021/11/22 02:08:04;;;;;;;22.38;11.80;;;3.60;99.90;;;;;;5051144;28;20029;-80
2021/11/22 02:10:31;;;;;;;24.33;11.27;;;3.60;99.90;;;;;;5060355;28;20048;-79
2021/11/22 02:12:57;;;;;;;25.27;11.40;;;3.60;99.90;;;;;;5048407;28;20547;-80
2021/11/22 02:15:25;;;;;;;19.33;10.30;;;3.60;99.90;;;;;;5065815;28;20051;-80
2021/11/22 02:17:53;;;;;;;20.30;11.10;;;3.60;99.90;;;;;;5048404;28;20017;-79
2021/11/22 02:20:23;;;;;;;20.10;11.00;;;3.60;99.90;;;;;;5058302;28;20033;-79
2021/11/22 02:22:51;;;;;;;17.92;10.80;;;3.60;99.90;;;;;;5071372;28;20020;-80
2021/11/22 02:25:18;;;;;;;18.67;11.10;;;3.70;99.90;;;;;;5085870;28;20028;-80
2021/11/22 02:27:45;;;;;;;21.25;11.18;;;3.60;99.90;;;;;;5068303;28;20152;-79
2021/11/22 02:30:13;;;;;;;19.98;10.90;;;3.60;99.90;;;;;;5079382;28;20565;-79
2021/11/22 02:32:41;;;;;;;18.23;10.82;;;3.60;99.90;;;;;;5049116;28;20033;-79
2021/11/22 02:35:10;;;;;;;21.55;11.35;;;3.60;99.90;;;;;;5047550;28;20553;-79
2021/11/22 02:37:36;;;;;;;18.73;11.48;;;3.50;99.90;;;;;;5045503;28;20031;-78
2021/11/22 02:40:03;;;;;;;18.33;11.13;;;3.60;99.90;;;;;;5065908;28;20053;-78
2021/11/22 02:42:31;;;;;;;17.83;10.13;;;3.50;99.90;;;;;;5063946;28;20110;-78
2021/11/22 02:44:57;;;;;;;16.25;10.30;;;3.60;99.90;;;;;;5064374;28;20036;-78
2021/11/22 02:47:24;;;;;;;18.33;11.05;;;3.60;99.90;;;;;;5059830;28;20049;-80
2021/11/22 02:49:51;;;;;;;16.67;10.25;;;3.60;99.90;;;;;;5047467;28;20017;-78
2021/11/22 02:52:16;;;;;;;17.95;10.23;;;3.70;99.90;;;;;;5070555;28;20029;-78
2021/11/22 02:54:43;;;;;;;22.38;11.23;;;3.70;99.90;;;;;;5070587;28;20039;-78
2021/11/22 02:57:10;;;;;;;17.27;10.65;;;3.60;99.90;;;;;;5090349;28;20024;-78
2021/11/22 02:59:40;;;;;;;16.77;9.93;;;3.60;99.90;;;;;;5073099;28;20055;-78
2021/11/22 03:02:13;;;;;;;17.80;10.05;;;3.60;99.90;;;;;;5057404;28;20088;-78
2021/11/22 03:04:41;;;;;;;17.73;11.05;;;3.60;99.90;;;;;;5078259;28;20016;-78
2021/11/22 03:07:08;;;;;;;17.23;9.88;;;3.60;99.90;;;;;;5077556;28;20025;-78
2021/11/22 03:09:34;;;;;;;16.52;9.57;;;3.60;99.90;;;;;;5058993;28;20024;-77
2021/11/22 03:12:02;;;;;;;22.75;11.38;;;3.60;99.90;;;;;;5046031;28;20064;-77
2021/11/22 03:14:28;;;;;;;17.70;10.50;;;3.50;99.90;;;;;;5022560;28;20103;-77
2021/11/22 03:16:55;;;;;;;18.00;10.82;;;3.50;99.90;;;;;;5023769;28;20028;-78
2021/11/22 03:19:22;;;;;;;14.43;9.95;;;3.50;99.90;;;;;;5039652;28;20032;-78
2021/11/22 03:21:48;;;;;;;21.95;11.75;;;3.50;99.90;;;;;;5068780;28;20055;-79
2021/11/22 03:24:15;;;;;;;17.45;10.50;;;3.50;99.90;;;;;;5053088;28;20028;-78
2021/11/22 03:26:41;;;;;;;14.93;9.65;;;3.50;99.90;;;;;;5068173;28;20036;-78
2021/11/22 03:29:08;;;;;;;16.02;9.50;;;3.60;99.90;;;;;;5063932;28;20021;-79
2021/11/22 03:31:36;;;;;;;19.52;11.32;;;3.60;99.90;;;;;;5062204;28;20032;-78
2021/11/22 03:34:03;;;;;;;18.77;10.52;;;3.60;99.90;;;;;;5045294;28;20048;-78
2021/11/22 03:36:30;;;;;;;18.80;11.20;;;3.70;99.90;;;;;;5047212;28;20088;-78
2021/11/22 03:38:57;;;;;;;17.60;10.65;;;3.60;99.90;;;;;;5062680;28;20082;-79
2021/11/22 03:41:23;;;;;;;17.67;10.18;;;3.60;99.90;;;;;;5044333;28;20029;-78
2021/11/22 03:43:54;;;;;;;19.60;10.48;;;3.60;99.90;;;;;;5063225;28;20020;-78
2021/11/22 03:46:21;;;;;;;19.90;10.40;;;3.60;99.90;;;;;;5044470;28;20021;-80
2021/11/22 03:48:47;;;;;;;15.38;9.77;;;3.60;99.90;;;;;;5063110;28;20092;-78
2021/11/22 03:51:13;;;;;;;17.70;10.52;;;3.60;99.90;;;;;;5036137;28;20017;-78
2021/11/22 03:53:39;;;;;;;19.77;10.73;;;3.60;99.90;;;;;;5074816;28;20050;-78
2021/11/22 03:56:05;;;;;;;17.05;9.50;;;3.60;99.90;;;;;;5064172;28;20025;-78
2021/11/22 03:58:31;;;;;;;19.92;11.05;;;3.60;99.90;;;;;;5082265;28;20501;-77
2021/11/22 04:00:56;;;;;;;14.13;9.55;;;3.60;99.90;;;;;;5049208;28;20053;-78
2021/11/22 04:03:23;;;;;;;14.27;9.02;;;3.70;99.90;;;;;;5043598;28;20028;-77
2021/11/22 04:05:48;;;;;;;15.40;9.43;;;3.70;99.90;;;;;;5061826;28;20028;-78
2021/11/22 04:08:16;;;;;;;17.15;10.15;;;3.70;99.90;;;;;;5046155;28;20427;-78
2021/11/22 04:10:42;;;;;;;17.48;11.32;;;3.70;99.90;;;;;;5059109;28;20035;-79
2021/11/22 04:13:08;;;;;;;16.20;10.27;;;3.70;99.90;;;;;;5060555;28;20025;-78
2021/11/22 04:15:35;;;;;;;18.60;11.10;;;3.70;99.90;;;;;;5060063;28;20044;-78
2021/11/22 04:18:01;;;;;;;17.83;11.13;;;3.80;99.90;;;;;;5060352;28;20017;-78
2021/11/22 04:20:27;;;;;;;19.05;11.23;;;3.70;99.90;;;;;;5061031;28;20036;-78
2021/11/22 04:22:53;;;;;;;14.38;9.88;;;3.70;99.90;;;;;;5069532;28;20060;-78
2021/11/22 04:25:20;;;;;;;16.85;10.27;;;3.70;99.90;;;;;;5064824;28;20441;-78
2021/11/22 04:27:46;;;;;;;18.88;11.07;;;3.70;99.90;;;;;;5082024;28;20052;-79
2021/11/22 04:30:13;;;;;;;21.70;12.30;;;3.70;99.90;;;;;;5063618;28;20358;-78
2021/11/22 04:32:40;;;;;;;16.20;10.98;;;3.80;99.90;;;;;;5062173;28;20424;-78
2021/11/22 04:35:09;;;;;;;16.02;10.45;;;3.80;99.90;;;;;;5061941;28;20025;-78
2021/11/22 04:37:35;;;;;;;16.95;10.32;;;3.80;99.90;;;;;;5062401;28;20021;-79
2021/11/22 04:40:03;;;;;;;17.15;10.10;;;3.70;99.90;;;;;;5068504;28;20037;-78
2021/11/22 04:42:29;;;;;;;21.63;11.20;;;3.80;99.90;;;;;;5074240;28;20032;-78
2021/11/22 04:44:55;;;;;;;16.35;9.95;;;3.80;99.90;;;;;;5060117;28;20363;-79
2021/11/22 04:47:21;;;;;;;15.27;9.98;;;3.70;99.90;;;;;;5045773;28;20090;-79
2021/11/22 04:49:48;;;;;;;21.13;12.15;;;3.70;99.90;;;;;;5046266;28;20036;-78
2021/11/22 04:52:14;;;;;;;20.08;11.90;;;3.70;99.90;;;;;;5069853;28;20025;-79
2021/11/22 04:54:40;;;;;;;21.85;12.77;;;3.80;99.90;;;;;;5051432;28;20125;-80
2021/11/22 04:57:06;;;;;;;22.05;13.13;;;3.80;99.90;;;;;;5065915;28;20029;-78
2021/11/22 04:59:33;;;;;;;19.92;12.68;;;3.80;99.90;;;;;;5062251;28;20029;-79
2021/11/22 05:01:59;;;;;;;24.75;13.38;;;3.80;99.90;;;;;;5061854;28;20409;-78
2021/11/22 05:04:25;;;;;;;24.15;14.43;;;3.80;99.90;;;;;;5064137;28;20108;-79
2021/11/22 05:06:51;;;;;;;25.60;14.55;;;3.80;99.90;;;;;;5063270;28;20021;-78
2021/11/22 05:09:19;;;;;;;22.73;14.25;;;3.80;99.90;;;;;;5062541;28;20036;-80
2021/11/22 05:11:45;;;;;;;26.30;14.93;;;3.80;99.90;;;;;;5058013;28;20025;-78
2021/11/22 05:14:11;;;;;;;27.55;15.63;;;3.80;99.90;;;;;;5041596;28;20524;-78
2021/11/22 05:16:39;;;;;;;23.58;13.80;;;3.80;99.90;;;;;;5061082;28;20068;-78
2021/11/22 05:19:05;;;;;;;24.90;14.73;;;3.80;99.90;;;;;;5055278;28;20100;-79
2021/11/22 05:21:32;;;;;;;29.60;16.23;;;3.80;99.90;;;;;;5050970;28;20127;-78
2021/11/22 05:24:01;;;;;;;28.17;15.85;;;3.80;99.90;;;;;;5070160;28;20021;-78
2021/11/22 05:26:29;;;;;;;27.67;15.80;;;3.80;99.90;;;;;;5077125;28;20017;-78
2021/11/22 05:28:55;;;;;;;27.73;15.32;;;3.80;99.90;;;;;;5062546;28;20131;-78
2021/11/22 05:31:21;;;;;;;23.60;14.05;;;3.80;99.90;;;;;;5041929;28;20017;-79
2021/11/22 05:33:47;;;;;;;25.55;14.95;;;3.70;99.90;;;;;;5037655;28;20036;-79
2021/11/22 05:36:12;;;;;;;25.42;13.98;;;3.70;99.90;;;;;;5062087;28;20025;-78
2021/11/22 05:38:38;;;;;;;22.88;14.23;;;3.70;99.90;;;;;;5044231;28;20055;-78
2021/11/22 05:41:04;;;;;;;28.73;15.77;;;3.80;99.90;;;;;;5061802;28;20017;-78
2021/11/22 05:43:30;;;;;;;30.98;15.82;;;3.70;99.90;;;;;;5048263;28;20518;-81
2021/11/22 05:45:56;;;;;;;26.77;15.20;;;3.70;99.90;;;;;;5041580;28;20028;-78
2021/11/22 05:48:21;;;;;;;23.05;13.30;;;3.70;99.90;;;;;;5040707;28;20025;-79
2021/11/22 05:50:52;;;;;;;25.23;14.82;;;3.70;99.90;;;;;;5027816;28;20039;-79
2021/11/22 05:53:18;;;;;;;25.55;14.30;;;3.70;99.90;;;;;;5057270;28;20094;-79
2021/11/22 05:55:45;;;;;;;21.75;13.80;;;3.70;99.90;;;;;;5062494;28;20080;-78
2021/11/22 05:58:13;;;;;;;22.63;13.07;;;3.70;99.90;;;;;;5061883;28;20018;-79
2021/11/22 06:00:40;;;;;;;24.60;13.60;;;3.70;99.90;;;;;;5062369;28;20013;-78
2021/11/22 06:03:06;;;;;;;24.67;13.43;;;3.70;99.90;;;;;;5062626;28;20021;-78
2021/11/22 06:05:32;;;;;;;21.95;12.93;;;3.60;99.90;;;;;;5049169;28;20025;-79
2021/11/22 06:07:58;;;;;;;24.38;12.82;;;3.60;99.90;;;;;;5044330;28;20040;-78
2021/11/22 06:10:24;;;;;;;23.83;13.40;;;3.70;99.90;;;;;;5042826;28;20034;-78
2021/11/22 06:12:50;;;;;;;20.42;13.10;;;3.70;99.90;;;;;;5058945;28;20033;-78
2021/11/22 06:15:16;;;;;;;20.20;11.82;;;3.70;99.90;;;;;;5041433;28;20060;-79
2021/11/22 06:17:42;;;;;;;22.40;13.13;;;3.70;99.90;;;;;;5045335;28;20021;-78
2021/11/22 06:20:09;;;;;;;21.58;12.65;;;3.80;99.90;;;;;;5066510;28;20053;-79
2021/11/22 06:22:35;;;;;;;21.70;12.70;;;3.80;99.90;;;;;;5039026;28;20095;-79
2021/11/22 06:25:01;;;;;;;22.88;11.93;;;3.80;99.90;;;;;;5041872;28;20047;-80
2021/11/22 06:27:27;;;;;;;23.45;12.27;;;3.80;99.90;;;;;;5060761;28;20044;-79
2021/11/22 06:29:53;;;;;;;20.70;11.43;;;3.70;99.90;;;;;;5039316;28;20033;-78
2021/11/22 06:32:19;;;;;;;21.58;12.18;;;3.60;99.90;;;;;;5037549;28;20143;-78
2021/11/22 06:34:45;;;;;;;21.42;12.20;;;3.60;99.90;;;;;;5035394;28;20068;-78
2021/11/22 06:37:11;;;;;;;22.67;12.48;;;3.60;99.90;;;;;;5061550;28;20035;-79
2021/11/22 06:39:38;;;;;;;20.45;11.70;;;3.60;99.90;;;;;;5067005;23;20037;-76
2021/11/22 06:42:08;;;;;;;20.00;10.57;;;3.60;99.90;;;;;;5019401;28;20100;-78
2021/11/22 06:44:34;;;;;;;21.60;10.85;;;3.60;99.90;;;;;;4998512;28;20030;-79
2021/11/22 06:47:00;;;;;;;21.88;12.43;;;3.60;99.90;;;;;;5007441;28;20030;-77
2021/11/22 06:49:26;;;;;;;22.52;12.10;;;3.70;99.90;;;;;;5019655;28;20077;-77
2021/11/22 06:51:52;;;;;;;22.45;12.27;;;3.70;99.90;;;;;;5004578;28;20216;-77
2021/11/22 06:54:18;;;;;;;20.00;11.70;;;3.70;99.90;;;;;;5041154;28;20021;-77
2021/11/22 06:56:44;;;;;;;21.63;11.68;;;3.70;99.90;;;;;;5026616;28;20425;-77
2021/11/22 06:59:10;;;;;;;20.42;12.13;;;3.70;99.90;;;;;;5019326;28;20029;-78
2021/11/22 07:01:36;;;;;;;22.08;12.80;;;3.70;99.90;;;;;;5013102;28;20037;-79
2021/11/22 07:04:02;;;;;;;26.05;13.90;;;3.80;99.90;;;;;;5022692;28;20108;-79
2021/11/22 07:06:28;;;;;;;27.13;15.07;;;3.80;99.90;;;;;;5004417;28;20026;-79
2021/11/22 07:08:53;;;;;;;24.10;13.32;;;3.80;99.90;;;;;;5020904;28;20397;-81
2021/11/22 07:11:20;;;;;;;25.08;14.18;;;3.80;99.90;;;;;;5046424;28;20081;-79
2021/11/22 07:13:46;;;;;;;24.65;13.80;;;3.90;99.90;;;;;;5032081;28;20097;-77
2021/11/22 07:16:14;;;;;;;25.95;13.65;;;4.00;99.90;;;;;;5048450;28;20087;-80
2021/11/22 07:18:40;;;;;;;23.55;12.88;;;4.00;99.90;;;;;;5043925;28;20017;-79
2021/11/22 07:21:06;;;;;;;27.45;14.85;;;4.00;99.90;;;;;;5014947;28;20030;-80
2021/11/22 07:23:32;;;;;;;26.63;13.80;;;4.10;99.90;;;;;;5032021;28;20226;-78
2021/11/22 07:25:58;;;;;;;23.95;12.82;;;4.10;99.90;;;;;;5032404;28;20025;-79
2021/11/22 07:28:25;;;;;;;27.25;14.98;;;4.10;99.90;;;;;;5032802;28;20064;-78
2021/11/22 07:30:54;;;;;;;25.95;13.40;;;4.20;99.90;;;;;;5031580;28;20034;-78
2021/11/22 07:33:20;;;;;;;31.33;14.70;;;4.20;99.90;;;;;;5015423;28;20049;-78
2021/11/22 07:35:47;;;;;;;30.75;15.40;;;4.10;99.90;;;;;;5032739;28;20018;-79
2021/11/22 07:38:14;;;;;;;31.42;16.55;;;4.20;99.90;;;;;;5016995;28;20025;-78
2021/11/22 07:40:40;;;;;;;32.20;15.82;;;4.20;99.90;;;;;;5004599;28;20031;-81
2021/11/22 07:43:06;;;;;;;22.38;13.32;;;4.20;99.90;;;;;;5013767;28;20033;-80
2021/11/22 07:45:32;;;;;;;25.75;14.70;;;4.20;99.90;;;;;;5028915;28;20037;-81
2021/11/22 07:47:58;;;;;;;28.80;14.07;;;4.20;99.90;;;;;;5025346;28;20026;-80
2021/11/22 07:50:26;;;;;;;24.63;14.02;;;4.20;99.90;;;;;;5012248;28;20026;-79
2021/11/22 07:52:52;;;;;;;24.35;14.00;;;4.30;99.90;;;;;;5014192;28;20030;-80
2021/11/22 07:55:20;;;;;;;25.45;13.30;;;4.30;99.90;;;;;;5026177;28;20082;-80
2021/11/22 07:57:46;;;;;;;28.20;14.85;;;4.30;99.90;;;;;;5032755;28;20078;-78
2021/11/22 08:00:13;;;;;;;23.02;13.00;;;4.30;99.90;;;;;;5038379;28;20018;-79
2021/11/22 08:02:39;;;;;;;26.95;15.07;;;4.20;99.90;;;;;;5013149;28;20026;-78
2021/11/22 08:05:06;;;;;;;30.45;15.00;;;4.20;99.90;;;;;;5012554;28;20037;-80
2021/11/22 08:07:36;;;;;;;23.67;13.40;;;4.20;99.90;;;;;;5029731;28;20033;-80
2021/11/22 08:10:05;;;;;;;26.63;13.40;;;4.20;99.90;;;;;;5028038;28;20081;-78
2021/11/22 08:12:40;;;;;;;24.95;14.00;;;4.30;99.90;;;;;;5012347;28;20133;-81
2021/11/22 08:15:10;;;;;;;32.97;15.20;;;4.20;99.90;;;;;;5011776;28;20034;-79
2021/11/22 08:17:40;;;;;;;27.88;15.32;;;4.30;99.90;;;;;;5029460;28;20022;-80
2021/11/22 08:20:08;;;;;;;26.45;13.48;;;4.30;99.90;;;;;;5029388;28;20036;-79
2021/11/22 08:22:34;;;;;;;23.77;13.45;;;4.20;99.90;;;;;;5033981;28;20022;-79
2021/11/22 08:25:00;;;;;;;21.85;12.73;;;4.30;99.90;;;;;;5011509;28;20030;-79
2021/11/22 08:27:28;;;;;;;25.23;13.10;;;4.30;99.90;;;;;;5028007;28;20465;-80
2021/11/22 08:30:00;;;;;;;22.17;13.50;;;4.20;99.90;;;;;;5011072;28;20026;-80
2021/11/22 08:32:26;;;;;;;23.77;13.20;;;4.20;99.90;;;;;;5009630;28;20026;-78
2021/11/22 08:34:53;;;;;;;26.75;14.38;;;4.30;99.90;;;;;;5024942;28;20040;-81
2021/11/22 08:37:19;;;;;;;23.27;13.13;;;4.30;99.90;;;;;;5028684;28;20018;-81
2021/11/22 08:39:45;;;;;;;21.08;12.55;;;4.30;99.90;;;;;;5031095;28;20097;-81
2021/11/22 08:42:11;;;;;;;22.20;13.82;;;4.30;99.90;;;;;;5012569;28;20593;-80
2021/11/22 08:44:37;;;;;;;24.23;14.30;;;4.30;99.90;;;;;;5031280;28;20021;-81
2021/11/22 08:47:04;;;;;;;22.83;13.80;;;4.40;99.90;;;;;;5012567;28;20033;-80
2021/11/22 08:49:32;;;;;;;25.70;14.07;;;4.30;99.90;;;;;;5012317;28;20022;-81
2021/11/22 08:51:59;;;;;;;21.60;13.43;;;4.30;99.90;;;;;;5004833;28;20010;-81
2021/11/22 08:54:25;;;;;;;22.02;12.80;;;4.30;99.90;;;;;;5002533;28;20426;-80
2021/11/22 08:56:50;;;;;;;22.98;13.05;;;4.30;99.90;;;;;;4999564;28;20022;-81
2021/11/22 08:59:17;;;;;;;21.77;13.77;;;4.30;99.90;;;;;;5003271;28;20078;-81
2021/11/22 09:01:43;;;;;;;24.17;13.95;;;4.40;99.90;;;;;;4981465;28;20106;-81
2021/11/22 09:04:10;;;;;;;25.40;13.57;;;4.40;99.90;;;;;;4999225;28;20031;-81
2021/11/22 09:06:36;;;;;;;24.30;12.80;;;4.50;99.90;;;;;;5002452;28;20046;-81
2021/11/22 09:09:07;;;;;;;20.05;11.82;;;4.50;99.90;;;;;;5003368;28;20018;-81
2021/11/22 09:11:34;;;;;;;21.65;12.85;;;4.50;99.90;;;;;;5000187;28;20169;-81
2021/11/22 09:14:00;;;;;;;20.30;11.70;;;4.50;99.90;;;;;;4986724;28;20543;-81
2021/11/22 09:16:28;;;;;;;22.58;11.75;;;4.50;99.90;;;;;;4999539;28;20050;-82
2021/11/22 09:18:59;;;;;;;22.52;12.75;;;4.50;99.90;;;;;;4985952;28;20101;-81
2021/11/22 09:21:26;;;;;;;20.48;11.55;;;4.50;99.90;;;;;;5008694;28;20130;-82
2021/11/22 09:23:52;;;;;;;22.80;11.80;;;4.60;99.90;;;;;;5038364;28;20021;-81
2021/11/22 09:26:19;;;;;;;20.05;10.50;;;4.60;99.90;;;;;;5019635;28;20045;-81
2021/11/22 09:28:46;;;;;;;19.15;11.60;;;4.70;99.90;;;;;;5019936;28;20018;-80
2021/11/22 09:31:13;;;;;;;20.63;11.00;;;4.70;99.90;;;;;;5037512;28;20075;-80
2021/11/22 09:33:39;;;;;;;19.98;10.98;;;4.80;99.90;;;;;;5024992;28;20045;-80
2021/11/22 09:36:05;;;;;;;19.08;11.00;;;4.90;99.90;;;;;;4999488;28;20036;-80
2021/11/22 09:38:31;;;;;;;21.00;11.93;;;4.90;99.90;;;;;;4998831;28;20030;-81
2021/11/22 09:40:57;;;;;;;22.40;11.70;;;4.80;99.90;;;;;;5008823;28;20116;-79
2021/11/22 09:43:24;;;;;;;21.20;12.40;;;4.90;99.90;;;;;;5017807;28;20022;-81
2021/11/22 09:45:51;;;;;;;20.35;11.88;;;4.90;99.90;;;;;;5004967;28;20026;-80
2021/11/22 09:51:23;;;;;;;16.38;10.43;;;4.90;99.90;;;;;;5238264;23;20052;-81
2021/11/22 09:53:49;;;;;;;15.48;9.98;;;4.90;99.90;;;;;;5055124;28;20474;-79
2021/11/22 09:56:15;;;;;;;15.95;9.77;;;5.00;99.90;;;;;;5044666;28;20495;-79
2021/11/22 09:58:41;;;;;;;16.83;9.73;;;5.00;99.90;;;;;;5042941;28;20041;-79
2021/11/22 10:01:13;;;;;;;14.25;9.07;;;5.10;99.90;;;;;;5045754;28;20132;-79
2021/11/22 10:03:39;;;;;;;20.02;11.93;;;5.20;99.90;;;;;;5051655;28;20039;-79
2021/11/22 10:06:05;;;;;;;21.75;11.88;;;5.10;99.90;;;;;;5064240;28;20096;-80
2021/11/22 10:08:39;;;;;;;17.20;10.07;;;5.00;99.90;;;;;;5053468;28;20029;-80
2021/11/22 10:11:08;;;;;;;16.50;10.13;;;4.90;99.90;;;;;;5051354;28;20085;-80
2021/11/22 10:13:34;;;;;;;19.90;11.90;;;5.00;99.90;;;;;;5043711;28;20549;-80
2021/11/22 10:16:01;;;;;;;19.92;12.13;;;5.00;99.90;;;;;;5046051;28;20022;-79
2021/11/22 10:18:33;;;;;;;18.67;10.90;;;5.10;99.90;;;;;;5045246;28;20094;-79
2021/11/22 10:21:08;;;;;;;18.25;11.15;;;5.10;99.90;;;;;;5048396;28;20021;-80
2021/11/22 10:23:36;;;;;;;18.17;10.18;;;5.10;99.90;;;;;;5062085;28;20029;-79
2021/11/22 10:26:03;;;;;;;19.33;11.10;;;5.20;99.90;;;;;;5069952;28;20115;-79
2021/11/22 10:28:32;;;;;;;19.95;11.15;;;5.20;99.90;;;;;;5034582;28;20061;-80
2021/11/22 10:31:06;;;;;;;23.20;12.63;;;5.20;99.90;;;;;;5053334;28;20029;-79
2021/11/22 10:33:34;;;;;;;17.15;10.65;;;5.20;99.90;;;;;;5073963;28;20025;-79
2021/11/22 10:36:03;;;;;;;20.85;11.02;;;5.20;99.90;;;;;;5047045;28;20079;-81
2021/11/22 10:38:34;;;;;;;19.40;10.75;;;5.30;99.90;;;;;;5064639;28;20017;-79
2021/11/22 10:41:07;;;;;;;17.55;9.73;;;5.40;99.90;;;;;;5051113;28;20025;-80
2021/11/22 10:43:50;;;;;;;16.48;9.73;;;5.50;99.90;;;;;;5049595;28;20040;-80
2021/11/22 10:46:27;;;;;;;21.80;12.88;;;5.60;99.90;;;;;;5032596;28;20030;-79
2021/11/22 10:49:08;;;;;;;23.83;12.68;;;5.60;99.90;;;;;;5061585;28;20029;-78
2021/11/22 10:51:40;;;;;;;22.33;13.30;;;5.60;99.90;;;;;;5051653;28;20051;-79
2021/11/22 10:54:09;;;;;;;21.42;12.65;;;5.60;99.90;;;;;;5069973;28;20051;-79
2021/11/22 10:56:44;;;;;;;22.30;12.93;;;5.70;99.90;;;;;;5054342;28;20036;-79
2021/11/22 10:59:21;;;;;;;23.02;13.43;;;5.70;99.90;;;;;;5056205;28;20045;-79
2021/11/22 11:01:55;;;;;;;22.90;12.10;;;5.70;99.90;;;;;;5037974;28;20029;-83
2021/11/22 11:04:26;;;;;;;21.58;12.50;;;5.70;99.90;;;;;;5069056;28;20021;-80
2021/11/22 11:07:06;;;;;;;23.27;12.38;;;5.80;99.90;;;;;;5047872;28;20094;-77
2021/11/22 11:09:35;;;;;;;22.33;12.70;;;5.80;99.90;;;;;;5068415;28;20117;-78
2021/11/22 11:12:07;;;;;;;22.38;12.18;;;5.70;99.90;;;;;;5074930;28;20071;-78
2021/11/22 11:14:34;;;;;;;20.85;12.50;;;5.60;99.90;;;;;;5051269;28;20039;-78
2021/11/22 11:17:10;;;;;;;25.65;12.93;;;5.60;99.90;;;;;;5048491;28;20029;-79
2021/11/22 11:19:38;;;;;;;21.67;12.45;;;5.50;99.90;;;;;;5050348;28;20121;-79
2021/11/22 11:22:04;;;;;;;21.95;11.52;;;5.50;99.90;;;;;;5057252;28;20086;-79
2021/11/22 11:24:31;;;;;;;22.42;12.40;;;5.50;99.90;;;;;;5070472;28;20033;-79
2021/11/22 11:26:57;;;;;;;21.50;12.18;;;5.50;99.90;;;;;;5062206;28;20365;-79
2021/11/22 11:29:25;;;;;;;19.98;11.80;;;5.50;99.90;;;;;;5067477;28;20029;-78
2021/11/22 11:31:51;;;;;;;22.85;11.65;;;5.50;99.90;;;;;;5056025;28;20035;-77
2021/11/22 11:34:17;;;;;;;23.13;11.57;;;5.60;99.90;;;;;;5049760;28;20084;-78
2021/11/22 11:36:48;;;;;;;22.20;12.13;;;5.60;99.90;;;;;;5059599;28;20080;-77
2021/11/22 11:39:37;;;;;;;20.73;11.18;;;5.70;99.90;;;;;;5029224;28;20029;-79
2021/11/22 11:42:22;;;;;;;17.48;10.98;;;5.70;99.90;;;;;;5027657;28;20061;-78
2021/11/22 11:44:59;;;;;;;19.65;10.85;;;5.70;99.90;;;;;;5063135;28;20017;-79
2021/11/22 11:47:32;;;;;;;18.58;10.63;;;5.70;99.90;;;;;;5055085;28;20013;-79
2021/11/22 11:50:15;;;;;;;17.48;10.68;;;5.70;99.90;;;;;;5035694;28;20037;-79
2021/11/22 11:56:14;;;;;;;;;;;5.70;99.90;;;;;;5043000;28;20037;-77
2021/11/22 11:58:41;;;;;;;17.52;9.73;;;5.70;99.90;;;;;;5064169;28;19972;-79
2021/11/22 12:01:18;;;;;;;17.75;10.68;;;5.70;99.90;;;;;;5056609;28;20116;-79
2021/11/22 12:04:02;;;;;;;19.30;10.82;;;5.70;99.90;;;;;;5051474;28;20528;-78
2021/11/22 12:06:49;;;;;;;20.33;10.68;;;5.70;99.90;;;;;;5027128;28;20021;-78
2021/11/22 12:09:28;;;;;;;18.65;10.65;;;5.80;99.90;;;;;;5043215;28;20025;-79
2021/11/22 12:12:17;;;;;;;16.67;10.38;;;5.70;99.90;;;;;;5047114;28;20137;-79
2021/11/22 12:14:57;;;;;;;17.60;10.27;;;5.70;99.90;;;;;;5050575;28;20037;-78
2021/11/22 12:17:35;;;;;;;19.08;10.43;;;5.60;99.90;;;;;;5061911;28;20039;-79
2021/11/22 12:20:10;;;;;;;17.77;9.93;;;5.60;99.90;;;;;;5043027;28;20017;-78
2021/11/22 12:22:51;;;;;;;18.17;10.00;;;5.50;99.90;;;;;;5048459;28;20055;-78
2021/11/22 12:25:39;;;;;;;19.20;10.23;;;5.60;99.90;;;;;;4999763;28;20054;-78
2021/11/22 12:28:12;;;;;;;20.30;10.30;;;5.50;99.90;;;;;;5032447;28;20029;-79
2021/11/22 12:31:14;;;;;;;17.95;10.77;;;5.50;99.90;;;;;;5020324;28;20025;-80
2021/11/22 12:33:44;;;;;;;20.90;11.57;;;5.50;99.90;;;;;;5041613;28;20413;-78
2021/11/22 12:36:12;;;;;;;18.15;11.23;;;5.50;99.90;;;;;;5056312;28;20063;-79
2021/11/22 12:38:42;;;;;;;23.17;11.65;;;5.40;99.90;;;;;;5056046;28;20035;-81
2021/11/22 12:41:11;;;;;;;19.08;11.73;;;5.40;99.90;;;;;;5047013;28;20005;-78
2021/11/22 12:43:45;;;;;;;22.17;11.75;;;5.50;99.90;;;;;;5034542;28;20052;-80
2021/11/22 12:46:14;;;;;;;18.02;11.52;;;5.40;99.90;;;;;;5053102;28;20065;-79
2021/11/22 12:48:56;;;;;;;21.95;12.82;;;5.40;99.90;;;;;;5051372;28;20090;-79